CEFAS Endeavour — VQHF3 — position and weather

sailwx.info

Track history (hours):
 
Tides and Currents Weather Stations Pressure Air Temp Water Temp Dewpoint Dewpoint Depression Visibility Wind Speed Wind Dir Waves Ship Positions

Oceanographic research ship CEFAS Endeavour (UK)

Detailed information on ship capabilities available from University of Delaware's Ocean Information Center.

Last reported at 2014-Dec-18 14:34 UTC. Time now 2014-Dec-18 15:27 UTC.
Position N 51°02' E 001°19'.

Length 74 m; draft 5.3 m.

Type: Cargo ship. MMSI: 235005270.

Date/timePositionNaut miles runAvg speedWind from/ knotsBaromVisibWave heightAir tempDewpointWater temp
2014-Dec-18 14:34N 51°02' E 001°19'2 1.1
2014-Dec-18 13:13N 51°01' E 001°17'3 4.2
2014-Dec-18 12:33N 50°59' E 001°13'13 5.6
2014-Dec-18 10:12N 50°52' E 000°56'5 7.0
2014-Dec-18 09:33N 50°50' E 000°49'1111.2
2014-Dec-18 08:33N 50°45' E 000°34'1110.8
2014-Dec-18 07:33N 50°41' E 000°17'1611.5
2014-Dec-18 06:08N 50°38' W 000°08'711.9
2014-Dec-18 05:33N 50°36' W 000°18'1312.3
2014-Dec-18 04:28N 50°33' W 000°39'1512.6
2014-Dec-18 03:19N 50°30' W 001°01'1012.5
2014-Dec-18 02:33N 50°28' W 001°16'7010.1
2014-Dec-17 19:33N 50°12' W 003°03'  
2014-Dec-12 20:29N 50°36' E 000°18'1213.0
2014-Dec-12 19:33N 50°39' E 000°36'1212.6
2014-Dec-12 18:33N 50°47' E 000°52'9 8.4
2014-Dec-12 17:32N 50°53' E 001°01'17 7.0
2014-Dec-12 15:05N 51°05' E 001°21'3 5.9
2014-Dec-12 14:33N 51°07' E 001°24'6 5.6
2014-Dec-12 13:33N 51°13' E 001°26'0 0.2
2014-Dec-12 12:31N 51°13' E 001°27'0 0.0
2014-Dec-12 11:31N 51°13' E 001°27'0 0.0
2014-Dec-12 10:31N 51°13' E 001°27'0 0.0
2014-Dec-12 09:31N 51°13' E 001°27'0 0.0
2014-Dec-12 08:31N 51°13' E 001°27'0 0.0
2014-Dec-12 07:31N 51°13' E 001°27'0 0.0
2014-Dec-12 06:31N 51°13' E 001°27'0 0.0
2014-Dec-12 05:31N 51°13' E 001°26'0 0.0
2014-Dec-12 04:31N 51°13' E 001°26'4 3.8
2014-Dec-12 03:34N 51°09' E 001°27'10 9.9
2014-Dec-12 02:34N 51°01' E 001°18'2 1.7
2014-Dec-12 01:20N 50°60' E 001°15'2 3.2
2014-Dec-12 00:33N 51°01' E 001°18'1 1.2
2014-Dec-11 23:34N 51°00' E 001°17'1 0.9
2014-Dec-11 22:33N 51°00' E 001°16'3 3.2
2014-Dec-11 21:34N 51°02' E 001°20'3 2.8
2014-Dec-11 20:21N 50°60' E 001°15'5 6.1
2014-Dec-11 19:32N 51°02' E 001°22'5 4.9
2014-Dec-11 18:32N 50°60' E 001°15'1 0.7
2014-Dec-11 17:29N 50°60' E 001°14'7 7.4
2014-Dec-11 16:33N 51°05' E 001°21'8 8.1
2014-Dec-11 15:34N 51°12' E 001°26'0 0.0
2014-Dec-11 14:33N 51°12' E 001°26'3 2.6
2014-Dec-11 13:33N 51°10' E 001°27'8 8.3
2014-Dec-11 12:34N 51°02' E 001°21'6 5.3
2014-Dec-11 11:29N 50°59' E 001°13'5 5.2
2014-Dec-11 10:33N 51°02' E 001°20'3 2.8
2014-Dec-11 09:33N 51°00' E 001°16'2 2.1
2014-Dec-11 08:26N 51°01' E 001°19'2 2.1
2014-Dec-11 07:33N 51°01' E 001°17'2 1.3
2014-Dec-11 06:12N 51°01' E 001°19'1 0.9
2014-Dec-11 05:33N 51°01' E 001°18'2 1.6
2014-Dec-11 04:29N 51°00' E 001°16'2 2.4
2014-Dec-11 03:33N 51°01' E 001°19'3 2.4
2014-Dec-11 02:31N 51°00' E 001°16'4 4.5
2014-Dec-11 01:33N 51°02' E 001°22'6 5.0
2014-Dec-11 00:27N 50°60' E 001°14'4 4.5
2014-Dec-10 23:33N 51°02' E 001°20'2 2.3
2014-Dec-10 22:33N 51°01' E 001°16'1 0.8
2014-Dec-10 21:24N 51°01' E 001°18'1 1.5
2014-Dec-10 20:33N 51°02' E 001°20'5 5.1
2014-Dec-10 19:34N 50°59' E 001°12'5 5.2
2014-Dec-10 18:33N 51°02' E 001°20'3 2.9
2014-Dec-10 17:33N 51°00' E 001°16'3 2.2
2014-Dec-10 16:21N 51°02' E 001°19'2 2.2
2014-Dec-10 15:33N 51°01' E 001°17'3 2.0
2014-Dec-10 14:05N 51°02' E 001°21'2 4.4
2014-Dec-10 13:34N 51°01' E 001°18'2 1.6
2014-Dec-10 12:17N 51°00' E 001°15'4 5.7
2014-Dec-10 11:32N 51°02' E 001°21'5 4.9
2014-Dec-10 10:28N 50°60' E 001°13'5 5.7
2014-Dec-10 09:32N 51°02' E 001°21'4 4.4
2014-Dec-10 08:33N 51°00' E 001°15'1 1.2
2014-Dec-10 07:33N 50°60' E 001°13'0 0.0
2014-Dec-10 06:33N 50°60' E 001°13'0 0.2
2014-Dec-10 05:15N 50°60' E 001°13'0 0.1
2014-Dec-10 04:04N 50°60' E 001°14'0 0.1
2014-Dec-10 00:26N 50°60' E 001°13'1 0.5
2014-Dec-09 23:18N 51°00' E 001°14'1 1.7
2014-Dec-09 22:24N 51°01' E 001°16'3 3.0
2014-Dec-09 21:33N 51°02' E 001°20'4 3.5
2014-Dec-09 20:28N 51°00' E 001°14'2 2.2
2014-Dec-09 19:34N 51°01' E 001°17'1 1.0
2014-Dec-09 18:33N 51°02' E 001°18'3 2.8
2014-Dec-09 17:33N 51°00' E 001°14'5 4.6
2014-Dec-09 16:33N 51°02' E 001°21'5 3.8
2014-Dec-09 15:21N 51°00' E 001°14'5 5.8
2014-Dec-09 14:30N 51°03' E 001°21'6 6.4
2014-Dec-09 13:33N 50°60' E 001°13'6 5.2
2014-Dec-09 12:27N 51°03' E 001°21'4 4.6
2014-Dec-09 11:30N 51°00' E 001°14'2 1.7
2014-Dec-09 10:33N 50°60' E 001°12'10 9.9
2014-Dec-09 09:30N 50°53' E 000°59'1212.3
2014-Dec-09 08:33N 50°48' E 000°43'1212.5
2014-Dec-09 07:34N 50°42' E 000°26'1212.1
2014-Dec-09 06:33N 50°38' E 000°08'1111.0
2014-Dec-09 05:33N 50°36' W 000°10'1111.2
2014-Dec-09 04:33N 50°34' W 000°27'1110.8
2014-Dec-09 03:33N 50°32' W 000°44'12 9.8
2014-Dec-09 02:18N 50°30' W 001°02'8 9.8
2014-Dec-09 01:29N 50°28' W 001°15'5513.4
2014-Dec-08 21:23N 50°16' W 002°39'1214.4
2014-Dec-08 20:33N 50°14' W 002°57'1414.1
2014-Dec-08 19:34N 50°11' W 003°18'  
Track history (hours):
 
Tides and Currents Weather Stations Pressure Air Temp Water Temp Dewpoint Dewpoint Depression Visibility Wind Speed Wind Dir Waves Ship Positions

Oceanographic research ship CEFAS Endeavour (UK)

Detailed information on ship capabilities available from University of Delaware's Ocean Information Center.

Last reported at 2014-Dec-18 14:34 UTC. Time now 2014-Dec-18 15:27 UTC.
Position N 51°02' E 001°19'.

Length 74 m; draft 5.3 m.

Type: Cargo ship. MMSI: 235005270.

Date/timePositionNaut miles runAvg speedWind from/ knotsBaromVisibWave heightAir tempDewpointWater temp
2014-Dec-18 14:34N 51°02' E 001°19'2 1.1
2014-Dec-18 13:13N 51°01' E 001°17'3 4.2
2014-Dec-18 12:33N 50°59' E 001°13'13 5.6
2014-Dec-18 10:12N 50°52' E 000°56'5 7.0
2014-Dec-18 09:33N 50°50' E 000°49'1111.2
2014-Dec-18 08:33N 50°45' E 000°34'1110.8
2014-Dec-18 07:33N 50°41' E 000°17'1611.5
2014-Dec-18 06:08N 50°38' W 000°08'711.9
2014-Dec-18 05:33N 50°36' W 000°18'1312.3
2014-Dec-18 04:28N 50°33' W 000°39'1512.6
2014-Dec-18 03:19N 50°30' W 001°01'1012.5
2014-Dec-18 02:33N 50°28' W 001°16'7010.1
2014-Dec-17 19:33N 50°12' W 003°03'  
2014-Dec-12 20:29N 50°36' E 000°18'1213.0
2014-Dec-12 19:33N 50°39' E 000°36'1212.6
2014-Dec-12 18:33N 50°47' E 000°52'9 8.4
2014-Dec-12 17:32N 50°53' E 001°01'17 7.0
2014-Dec-12 15:05N 51°05' E 001°21'3 5.9
2014-Dec-12 14:33N 51°07' E 001°24'6 5.6
2014-Dec-12 13:33N 51°13' E 001°26'0 0.2
2014-Dec-12 12:31N 51°13' E 001°27'0 0.0
2014-Dec-12 11:31N 51°13' E 001°27'0 0.0
2014-Dec-12 10:31N 51°13' E 001°27'0 0.0
2014-Dec-12 09:31N 51°13' E 001°27'0 0.0
2014-Dec-12 08:31N 51°13' E 001°27'0 0.0
2014-Dec-12 07:31N 51°13' E 001°27'0 0.0
2014-Dec-12 06:31N 51°13' E 001°27'0 0.0
2014-Dec-12 05:31N 51°13' E 001°26'0 0.0
2014-Dec-12 04:31N 51°13' E 001°26'4 3.8
2014-Dec-12 03:34N 51°09' E 001°27'10 9.9
2014-Dec-12 02:34N 51°01' E 001°18'2 1.7
2014-Dec-12 01:20N 50°60' E 001°15'2 3.2
2014-Dec-12 00:33N 51°01' E 001°18'1 1.2
2014-Dec-11 23:34N 51°00' E 001°17'1 0.9
2014-Dec-11 22:33N 51°00' E 001°16'3 3.2
2014-Dec-11 21:34N 51°02' E 001°20'3 2.8
2014-Dec-11 20:21N 50°60' E 001°15'5 6.1
2014-Dec-11 19:32N 51°02' E 001°22'5 4.9
2014-Dec-11 18:32N 50°60' E 001°15'1 0.7
2014-Dec-11 17:29N 50°60' E 001°14'7 7.4
2014-Dec-11 16:33N 51°05' E 001°21'8 8.1
2014-Dec-11 15:34N 51°12' E 001°26'0 0.0
2014-Dec-11 14:33N 51°12' E 001°26'3 2.6
2014-Dec-11 13:33N 51°10' E 001°27'8 8.3
2014-Dec-11 12:34N 51°02' E 001°21'6 5.3
2014-Dec-11 11:29N 50°59' E 001°13'5 5.2
2014-Dec-11 10:33N 51°02' E 001°20'3 2.8
2014-Dec-11 09:33N 51°00' E 001°16'2 2.1
2014-Dec-11 08:26N 51°01' E 001°19'2 2.1
2014-Dec-11 07:33N 51°01' E 001°17'2 1.3
2014-Dec-11 06:12N 51°01' E 001°19'1 0.9
2014-Dec-11 05:33N 51°01' E 001°18'2 1.6
2014-Dec-11 04:29N 51°00' E 001°16'2 2.4
2014-Dec-11 03:33N 51°01' E 001°19'3 2.4
2014-Dec-11 02:31N 51°00' E 001°16'4 4.5
2014-Dec-11 01:33N 51°02' E 001°22'6 5.0
2014-Dec-11 00:27N 50°60' E 001°14'4 4.5
2014-Dec-10 23:33N 51°02' E 001°20'2 2.3
2014-Dec-10 22:33N 51°01' E 001°16'1 0.8
2014-Dec-10 21:24N 51°01' E 001°18'1 1.5
2014-Dec-10 20:33N 51°02' E 001°20'5 5.1
2014-Dec-10 19:34N 50°59' E 001°12'5 5.2
2014-Dec-10 18:33N 51°02' E 001°20'3 2.9
2014-Dec-10 17:33N 51°00' E 001°16'3 2.2
2014-Dec-10 16:21N 51°02' E 001°19'2 2.2
2014-Dec-10 15:33N 51°01' E 001°17'3 2.0
2014-Dec-10 14:05N 51°02' E 001°21'2 4.4
2014-Dec-10 13:34N 51°01' E 001°18'2 1.6
2014-Dec-10 12:17N 51°00' E 001°15'4 5.7
2014-Dec-10 11:32N 51°02' E 001°21'5 4.9
2014-Dec-10 10:28N 50°60' E 001°13'5 5.7
2014-Dec-10 09:32N 51°02' E 001°21'4 4.4
2014-Dec-10 08:33N 51°00' E 001°15'1 1.2
2014-Dec-10 07:33N 50°60' E 001°13'0 0.0
2014-Dec-10 06:33N 50°60' E 001°13'0 0.2
2014-Dec-10 05:15N 50°60' E 001°13'0 0.1
2014-Dec-10 04:04N 50°60' E 001°14'0 0.1
2014-Dec-10 00:26N 50°60' E 001°13'1 0.5
2014-Dec-09 23:18N 51°00' E 001°14'1 1.7
2014-Dec-09 22:24N 51°01' E 001°16'3 3.0
2014-Dec-09 21:33N 51°02' E 001°20'4 3.5
2014-Dec-09 20:28N 51°00' E 001°14'2 2.2
2014-Dec-09 19:34N 51°01' E 001°17'1 1.0
2014-Dec-09 18:33N 51°02' E 001°18'3 2.8
2014-Dec-09 17:33N 51°00' E 001°14'5 4.6
2014-Dec-09 16:33N 51°02' E 001°21'5 3.8
2014-Dec-09 15:21N 51°00' E 001°14'5 5.8
2014-Dec-09 14:30N 51°03' E 001°21'6 6.4
2014-Dec-09 13:33N 50°60' E 001°13'6 5.2
2014-Dec-09 12:27N 51°03' E 001°21'4 4.6
2014-Dec-09 11:30N 51°00' E 001°14'2 1.7
2014-Dec-09 10:33N 50°60' E 001°12'10 9.9
2014-Dec-09 09:30N 50°53' E 000°59'1212.3
2014-Dec-09 08:33N 50°48' E 000°43'1212.5
2014-Dec-09 07:34N 50°42' E 000°26'1212.1
2014-Dec-09 06:33N 50°38' E 000°08'1111.0
2014-Dec-09 05:33N 50°36' W 000°10'1111.2
2014-Dec-09 04:33N 50°34' W 000°27'1110.8
2014-Dec-09 03:33N 50°32' W 000°44'12 9.8
2014-Dec-09 02:18N 50°30' W 001°02'8 9.8
2014-Dec-09 01:29N 50°28' W 001°15'5513.4
2014-Dec-08 21:23N 50°16' W 002°39'1214.4
2014-Dec-08 20:33N 50°14' W 002°57'1414.1
2014-Dec-08 19:34N 50°11' W 003°18'  

Dump ship's entire track history